Time;durP1;ratioP1;P1;durP2;ratioP2;P2;SDS_P1;SDS_P2;PMS_P1;PMS_P2;Temp;Humidity;BMP_temperature;BMP_pressure;BME280_temperature;BME280_humidity;BME280_pressure;Samples;Min_cycle;Max_cycle;Signal;HPM_P1;HPM_P2
2023/04/04 00:01:11;;;;;;;2.30;1.30;;;;;;;3.75;75.67;99385.85;107708;1251;66624;-37
2023/04/04 00:03:41;;;;;;;2.30;1.70;;;;;;;3.80;75.78;99381.17;107617;1251;73880;-37
2023/04/04 00:06:11;;;;;;;1.70;1.50;;;;;;;3.85;75.64;99381.18;107618;1251;60784;-37
2023/04/04 00:08:40;;;;;;;2.60;1.90;;;;;;;3.88;75.41;99383.55;107751;1251;61550;-37
2023/04/04 00:11:15;;;;;;;2.20;1.70;;;;;;;3.84;75.02;99385.35;107654;1251;74217;-37
2023/04/04 00:13:45;;;;;;;2.00;1.70;;;;;;;3.76;74.76;99383.83;107645;1251;68206;-37
2023/04/04 00:16:13;;;;;;;1.50;1.30;;;;;;;3.76;74.96;99385.81;107638;1256;73845;-37
2023/04/04 00:18:42;;;;;;;3.00;1.80;;;;;;;3.82;74.93;99381.59;107715;1256;61399;-37
2023/04/04 00:21:10;;;;;;;1.80;1.40;;;;;;;3.86;74.98;99386.58;107686;1251;61549;-37
2023/04/04 00:23:39;;;;;;;2.70;2.20;;;;;;;3.85;74.93;99389.48;107729;1251;73227;-37
2023/04/04 00:26:08;;;;;;;2.10;1.70;;;;;;;3.87;74.93;99397.68;107684;1251;69102;-37
2023/04/04 00:28:36;;;;;;;4.20;2.10;;;;;;;3.90;74.89;99403.81;107720;1251;72626;-37
2023/04/04 00:31:05;;;;;;;3.50;2.20;;;;;;;3.88;74.71;99410.20;107734;1251;60791;-37
2023/04/04 00:33:35;;;;;;;3.10;1.60;;;;;;;3.78;74.67;99407.40;107578;1252;61317;-37
2023/04/04 00:36:04;;;;;;;2.10;1.60;;;;;;;3.78;74.84;99403.69;107614;1253;74261;-37
2023/04/04 00:38:36;;;;;;;2.10;1.70;;;;;;;3.84;75.01;99412.42;107531;1254;68849;-37
2023/04/04 00:41:05;;;;;;;2.50;1.70;;;;;;;3.88;75.03;99413.34;107613;1254;73814;-37
2023/04/04 00:43:35;;;;;;;2.30;1.90;;;;;;;3.90;74.87;99412.05;107547;1253;61131;-37
2023/04/04 00:46:04;;;;;;;2.90;2.00;;;;;;;3.89;74.78;99408.04;107588;1253;61583;-37
2023/04/04 00:48:32;;;;;;;3.10;2.00;;;;;;;3.88;74.88;99407.85;107649;1253;74261;-37
2023/04/04 00:51:01;;;;;;;2.60;1.70;;;;;;;3.88;74.78;99412.84;107630;1257;69427;-37
2023/04/04 00:53:34;;;;;;;2.90;1.80;;;;;;;3.91;74.36;99411.58;107582;1254;73624;-38
2023/04/04 00:56:03;;;;;;;2.20;1.70;;;;;;;3.96;74.42;99404.27;107506;1253;61502;-38
2023/04/04 00:58:32;;;;;;;3.80;1.90;;;;;;;3.96;74.74;99400.91;106057;1254;1003445;-38
2023/04/04 01:01:01;;;;;;;2.60;2.00;;;;;;;3.96;74.61;99403.73;107617;1254;74673;-38
2023/04/04 01:03:32;;;;;;;2.30;1.80;;;;;;;3.97;74.60;99407.06;106722;1254;1003058;-38
2023/04/04 01:06:01;;;;;;;2.80;2.00;;;;;;;3.97;74.66;99406.09;107578;1254;73861;-38
2023/04/04 01:08:30;;;;;;;3.20;2.10;;;;;;;3.94;74.40;99400.15;107625;1253;61454;-37
2023/04/04 01:11:00;;;;;;;3.00;1.60;;;;;;;3.92;74.12;99400.75;107389;1254;60967;-37
2023/04/04 01:13:30;;;;;;;2.80;2.30;;;;;;;3.87;74.38;99399.73;107537;1254;74018;-37
2023/04/04 01:16:01;;;;;;;2.10;1.90;;;;;;;3.79;74.67;99403.67;107329;1254;68071;-37
2023/04/04 01:18:31;;;;;;;2.10;1.80;;;;;;;3.76;75.23;99411.04;107394;1254;73938;-37
2023/04/04 01:21:03;;;;;;;3.80;2.30;;;;;;;3.79;75.52;99414.02;107439;1253;60470;-37
2023/04/04 01:23:56;;;;;;;3.50;2.10;;;;;;;3.77;75.39;99411.67;106673;1254;1003073;-37
2023/04/04 01:26:29;;;;;;;4.00;2.40;;;;;;;3.79;75.32;99422.34;107454;1258;73083;-37
2023/04/04 01:29:01;;;;;;;3.00;2.00;;;;;;;3.80;75.17;99426.17;107477;1253;69163;-37
2023/04/04 01:31:45;;;;;;;2.50;2.30;;;;;;;3.85;75.37;99431.11;107485;1254;73759;-37
2023/04/04 01:34:23;;;;;;;2.80;2.30;;;;;;;3.92;75.18;99436.75;107535;1254;61233;-37
2023/04/04 01:37:01;;;;;;;3.70;2.40;;;;;;;3.87;75.02;99434.46;107727;1253;61156;-37
2023/04/04 01:39:43;;;;;;;2.80;2.20;;;;;;;3.84;75.12;99431.52;107678;1252;72849;-37
2023/04/04 01:42:13;;;;;;;3.80;2.50;;;;;;;3.84;75.30;99434.55;107602;1252;68884;-37
2023/04/04 01:44:44;;;;;;;4.40;2.40;;;;;;;3.82;74.75;99431.69;107518;1253;73957;-37
2023/04/04 01:47:14;;;;;;;4.60;2.00;;;;;;;3.79;74.47;99434.52;107507;1253;62060;-37
2023/04/04 01:49:43;;;;;;;4.30;2.30;;;;;;;3.77;74.53;99433.54;107572;1252;61578;-37
2023/04/04 01:52:14;;;;;;;2.90;2.00;;;;;;;3.77;74.77;99432.06;107652;1254;72955;-37
2023/04/04 01:54:43;;;;;;;3.00;1.90;;;;;;;3.72;74.80;99429.40;107576;1254;68216;-37
2023/04/04 01:57:12;;;;;;;2.90;2.20;;;;;;;3.69;74.86;99424.61;107760;1254;73159;-37
2023/04/04 01:59:41;;;;;;;3.80;2.50;;;;;;;3.61;74.87;99419.06;107692;1256;60355;-37
2023/04/04 02:02:11;;;;;;;3.70;2.10;;;;;;;3.57;75.00;99419.77;107712;1253;61161;-37
2023/04/04 02:04:40;;;;;;;3.70;2.60;;;;;;;3.59;75.08;99419.11;107605;1253;73683;-37
2023/04/04 02:07:09;;;;;;;3.80;2.20;;;;;;;3.67;75.35;99409.77;107766;1253;68677;-37
2023/04/04 02:09:38;;;;;;;3.50;2.30;;;;;;;3.70;75.20;99406.77;107727;1254;73663;-37
2023/04/04 02:12:07;;;;;;;4.20;2.30;;;;;;;3.71;75.31;99397.91;107723;1254;60405;-37
2023/04/04 02:14:36;;;;;;;2.70;2.30;;;;;;;3.70;75.10;99398.57;107735;1253;61908;-37
2023/04/04 02:17:05;;;;;;;3.70;2.50;;;;;;;3.62;74.77;99395.22;107716;1252;74990;-37
2023/04/04 02:19:34;;;;;;;4.50;2.40;;;;;;;3.61;74.78;99397.45;107703;1254;69121;-37
2023/04/04 02:22:07;;;;;;;2.90;2.30;;;;;;;3.63;75.02;99398.38;107660;1254;73908;-37
2023/04/04 02:24:36;;;;;;;2.80;1.80;;;;;;;3.69;75.05;99392.33;107740;1254;60453;-37
2023/04/04 02:27:05;;;;;;;2.60;2.20;;;;;;;3.73;75.11;99383.95;107666;1254;61499;-37
2023/04/04 02:29:34;;;;;;;2.60;2.20;;;;;;;3.78;75.02;99383.45;107693;1254;74731;-37
2023/04/04 02:32:03;;;;;;;4.00;2.60;;;;;;;3.76;74.62;99379.70;107708;1253;69238;-37
2023/04/04 02:34:32;;;;;;;1.90;1.70;;;;;;;3.69;74.69;99378.92;107823;1253;72575;-37
2023/04/04 02:37:02;;;;;;;2.10;1.70;;;;;;;3.58;74.46;99382.69;106911;1253;1003058;-37
2023/04/04 02:39:31;;;;;;;3.40;2.30;;;;;;;3.50;74.65;99382.64;107805;1254;61225;-37
2023/04/04 02:42:00;;;;;;;5.50;2.40;;;;;;;3.47;74.81;99383.48;107756;1253;73260;-37
2023/04/04 02:44:29;;;;;;;3.30;2.50;;;;;;;3.43;75.05;99391.10;107648;1253;68868;-37
2023/04/04 02:47:01;;;;;;;3.60;2.50;;;;;;;3.41;75.35;99395.92;107561;1254;73873;-37
2023/04/04 02:49:31;;;;;;;;;;;;;;;3.39;75.42;99399.38;107606;1252;60306;-37
2023/04/04 02:52:00;;;;;;;3.50;2.40;;;;;;;3.31;75.66;99405.30;107606;1252;60973;-37
2023/04/04 02:54:33;;;;;;;3.50;2.40;;;;;;;3.21;76.03;99402.91;107639;1252;73731;-37
2023/04/04 02:57:03;;;;;;;2.60;2.10;;;;;;;3.29;76.21;99406.81;107571;1253;68270;-37
2023/04/04 02:59:32;;;;;;;;;;;;;;;3.36;76.23;99399.66;107724;1254;73707;-37
2023/04/04 03:02:01;;;;;;;4.10;2.70;;;;;;;3.33;76.36;99397.75;107744;1254;61460;-37
2023/04/04 03:04:31;;;;;;;3.10;2.50;;;;;;;3.30;76.27;99400.52;107561;1254;60458;-37
2023/04/04 03:07:00;;;;;;;3.20;2.80;;;;;;;3.32;76.22;99405.02;107622;1254;74748;-37
2023/04/04 03:09:29;;;;;;;5.00;2.70;;;;;;;3.31;76.41;99408.05;107603;1254;68667;-37
2023/04/04 03:11:59;;;;;;;2.60;2.40;;;;;;;3.36;76.30;99409.52;107556;1257;73702;-37
2023/04/04 03:14:33;;;;;;;3.70;2.50;;;;;;;3.41;76.26;99410.77;107604;1253;60424;-37
2023/04/04 03:17:02;;;;;;;3.30;2.50;;;;;;;3.43;76.31;99414.74;107639;1254;61521;-37
2023/04/04 03:19:31;;;;;;;3.20;2.80;;;;;;;3.49;76.83;99421.91;107522;1252;75141;-37
2023/04/04 03:22:00;;;;;;;3.60;2.80;;;;;;;3.56;76.65;99432.16;107617;1254;69581;-37
2023/04/04 03:24:31;;;;;;;3.80;3.20;;;;;;;3.59;76.27;99432.61;107726;1254;73856;-37
2023/04/04 03:27:00;;;;;;;5.10;2.90;;;;;;;3.57;76.29;99435.16;107710;1252;61906;-37
2023/04/04 03:29:31;;;;;;;;;;;;;;;3.61;76.16;99434.76;107583;1253;62348;-37
2023/04/04 03:32:00;;;;;;;5.40;2.40;;;;;;;3.58;75.60;99431.22;107613;1252;74085;-37
2023/04/04 03:34:30;;;;;;;4.40;3.10;;;;;;;3.49;75.54;99426.84;107719;1254;69102;-37
2023/04/04 03:36:59;;;;;;;3.10;2.80;;;;;;;3.47;75.65;99421.16;107693;1254;73744;-37
2023/04/04 03:39:29;;;;;;;5.10;3.20;;;;;;;3.46;75.85;99429.67;107684;1253;60796;-37
2023/04/04 03:41:57;;;;;;;2.90;2.30;;;;;;;3.45;75.55;99429.54;107718;1253;61231;-37
2023/04/04 03:44:26;;;;;;;4.70;2.60;;;;;;;3.39;75.37;99429.14;107643;1252;73940;-37
2023/04/04 03:46:55;;;;;;;3.00;2.40;;;;;;;3.40;75.42;99426.72;107686;1254;69050;-37
2023/04/04 03:49:26;;;;;;;4.00;3.10;;;;;;;3.42;75.22;99428.33;107574;1254;73784;-37
2023/04/04 03:51:54;;;;;;;5.60;3.50;;;;;;;3.40;75.26;99430.68;107698;1252;60688;-37
2023/04/04 03:54:25;;;;;;;3.90;3.00;;;;;;;3.40;75.30;99429.29;107582;1253;61508;-37
2023/04/04 03:56:54;;;;;;;4.00;3.00;;;;;;;3.41;75.46;99428.20;107661;1256;73728;-37
2023/04/04 03:59:22;;;;;;;4.80;3.10;;;;;;;3.36;75.26;99423.14;107621;1256;68796;-37
2023/04/04 04:01:51;;;;;;;3.60;3.10;;;;;;;3.38;75.49;99430.14;107712;1254;73631;-37
2023/04/04 04:04:20;;;;;;;3.20;2.80;;;;;;;3.42;75.48;99436.84;107587;1253;61565;-37
2023/04/04 04:06:49;;;;;;;3.90;3.40;;;;;;;3.45;75.75;99440.68;107729;1254;60919;-37
2023/04/04 04:09:17;;;;;;;4.40;3.30;;;;;;;3.48;75.58;99445.25;107732;1252;75547;-37
2023/04/04 04:11:47;;;;;;;5.40;3.60;;;;;;;3.48;75.64;99446.80;107665;1254;68008;-37
2023/04/04 04:14:16;;;;;;;6.90;3.60;;;;;;;3.46;75.33;99442.95;107737;1253;74048;-37
2023/04/04 04:16:45;;;;;;;5.10;3.20;;;;;;;3.43;75.33;99441.41;107737;1254;62076;-37
2023/04/04 04:19:16;;;;;;;4.70;3.30;;;;;;;3.50;75.37;99441.66;107730;1253;62372;-37
2023/04/04 04:21:45;;;;;;;5.20;3.60;;;;;;;3.54;74.98;99444.38;107695;1254;74424;-37
2023/04/04 04:24:14;;;;;;;4.50;3.30;;;;;;;3.54;75.19;99457.09;107632;1254;69077;-37
2023/04/04 04:26:44;;;;;;;4.90;4.00;;;;;;;3.55;75.34;99461.15;107675;1253;73757;-37
2023/04/04 04:29:16;;;;;;;7.90;5.10;;;;;;;3.59;75.42;99461.09;107669;1254;60344;-37
2023/04/04 04:31:44;;;;;;;12.90;6.60;;;;;;;3.63;75.32;99452.40;107751;1255;61215;-37
2023/04/04 04:34:13;;;;;;;13.70;6.30;;;;;;;3.64;75.34;99453.73;107542;1253;74866;-37
2023/04/04 04:36:42;;;;;;;10.70;5.80;;;;;;;3.70;75.00;99452.52;107720;1254;68823;-37
2023/04/04 04:39:21;;;;;;;5.50;4.10;;;;;;;3.74;74.62;99450.53;107641;1254;73326;-37
2023/04/04 04:42:08;;;;;;;7.90;4.90;;;;;;;3.70;74.64;99451.25;107620;1251;61550;-37
2023/04/04 04:44:42;;;;;;;5.80;4.00;;;;;;;3.66;74.59;99455.44;107700;1251;61532;-37
2023/04/04 04:47:10;;;;;;;5.00;3.80;;;;;;;3.63;74.61;99455.55;107703;1256;74691;-38
2023/04/04 04:49:42;;;;;;;6.20;5.00;;;;;;;3.61;74.54;99450.48;107772;1256;69083;-37
2023/04/04 04:52:12;;;;;;;6.50;4.30;;;;;;;3.61;74.74;99451.07;107754;1251;72333;-36
2023/04/04 04:54:45;;;;;;;6.30;3.80;;;;;;;3.63;74.43;99448.77;107702;1251;62494;-36
2023/04/04 04:57:14;;;;;;;6.80;4.50;;;;;;;3.66;74.45;99450.13;107608;1251;60557;-36
2023/04/04 04:59:43;;;;;;;5.40;4.00;;;;;;;3.66;74.56;99448.88;107650;1251;73804;-36
2023/04/04 05:02:15;;;;;;;7.20;4.50;;;;;;;3.65;74.66;99454.80;107576;1251;68793;-37
2023/04/04 05:04:45;;;;;;;6.50;4.30;;;;;;;3.64;74.59;99454.88;107576;1251;72618;-36
2023/04/04 05:07:15;;;;;;;5.30;4.40;;;;;;;3.59;74.33;99458.09;107630;1256;60321;-37
2023/04/04 05:09:49;;;;;;;5.80;4.20;;;;;;;3.52;74.23;99462.64;107586;1251;61477;-37
2023/04/04 05:12:20;;;;;;;5.90;4.00;;;;;;;3.52;74.37;99465.48;107584;1251;74549;-37
2023/04/04 05:14:50;;;;;;;6.40;4.40;;;;;;;3.56;74.39;99468.64;107686;1251;68849;-37
2023/04/04 05:17:22;;;;;;;6.00;4.30;;;;;;;3.56;74.51;99474.54;107706;1255;72303;-37
2023/04/04 05:19:53;;;;;;;5.50;4.00;;;;;;;3.57;74.25;99486.84;107659;1257;60261;-37
2023/04/04 05:22:22;;;;;;;5.20;4.10;;;;;;;3.54;74.48;99490.17;107753;1255;60803;-38
2023/04/04 05:24:52;;;;;;;7.10;4.50;;;;;;;3.49;74.19;99484.56;107648;1251;75068;-37
2023/04/04 05:27:23;;;;;;;6.40;4.60;;;;;;;3.41;74.35;99476.65;107650;1251;69136;-37
2023/04/04 05:29:57;;;;;;;6.10;4.00;;;;;;;3.43;74.76;99465.34;107651;1251;73634;-37
2023/04/04 05:32:34;;;;;;;5.50;4.00;;;;;;;3.51;74.71;99455.54;107648;1251;61602;-37
2023/04/04 05:35:08;;;;;;;7.20;5.00;;;;;;;3.49;74.73;99448.35;107693;1251;61509;-37
2023/04/04 05:37:40;;;;;;;7.60;4.80;;;;;;;3.44;74.70;99449.65;107647;1251;75023;-37
2023/04/04 05:40:14;;;;;;;6.90;4.10;;;;;;;3.42;74.86;99460.02;107654;1251;69157;-37
2023/04/04 05:42:55;;;;;;;8.70;5.40;;;;;;;3.40;74.75;99470.23;107631;1251;72440;-37
2023/04/04 05:45:26;;;;;;;6.40;4.80;;;;;;;3.36;74.69;99470.36;107589;1251;61995;-37
2023/04/04 05:47:56;;;;;;;5.80;4.30;;;;;;;3.37;74.46;99474.88;107682;1251;60366;-37
2023/04/04 05:50:25;;;;;;;4.90;4.10;;;;;;;3.37;74.67;99471.98;107632;1257;74773;-37
2023/04/04 05:53:01;;;;;;;5.70;4.40;;;;;;;3.34;74.78;99481.67;107636;1251;69000;-37
2023/04/04 05:55:30;;;;;;;;;;;;;;;3.32;75.06;99488.31;107735;1251;73846;-37
2023/04/04 05:58:02;;;;;;;5.40;4.60;;;;;;;3.25;75.07;99490.45;107613;1251;60533;-37
2023/04/04 06:00:44;;;;;;;7.30;4.50;;;;;;;3.20;74.97;99491.88;107677;1251;61119;-38
2023/04/04 06:03:13;;;;;;;7.00;4.50;;;;;;;3.20;74.99;99492.95;107626;1251;74894;-37
2023/04/04 06:05:43;;;;;;;7.10;4.80;;;;;;;3.28;74.84;99493.11;107696;1251;67947;-37
2023/04/04 06:08:13;;;;;;;6.30;4.50;;;;;;;3.31;74.87;99496.31;107659;1251;72621;-37
2023/04/04 06:10:41;;;;;;;8.20;4.90;;;;;;;3.26;74.70;99496.06;107681;1251;60530;-37
2023/04/04 06:13:10;;;;;;;6.80;4.70;;;;;;;3.23;75.04;99497.13;107664;1256;61554;-37
2023/04/04 06:15:40;;;;;;;7.10;5.40;;;;;;;3.20;74.88;99487.80;107798;1251;73795;-37
2023/04/04 06:18:09;;;;;;;6.90;5.20;;;;;;;3.19;75.24;99488.05;107644;1251;68858;-37
2023/04/04 06:20:38;;;;;;;5.80;4.60;;;;;;;3.26;75.06;99492.42;107654;1251;71712;-37
2023/04/04 06:23:08;;;;;;;6.50;4.70;;;;;;;3.36;75.00;99491.05;107675;1251;61383;-37
2023/04/04 06:25:40;;;;;;;5.70;4.80;;;;;;;3.40;74.76;99491.46;107628;1251;60335;-37
2023/04/04 06:28:10;;;;;;;7.40;5.60;;;;;;;3.40;74.66;99484.60;107715;1250;74176;-37
2023/04/04 06:30:39;;;;;;;7.40;4.40;;;;;;;3.44;74.86;99481.65;107693;1256;69142;-37
2023/04/04 06:33:11;;;;;;;7.10;5.60;;;;;;;3.50;74.93;99481.08;107673;1251;72325;-37
2023/04/04 06:35:44;;;;;;;7.00;5.10;;;;;;;3.51;74.55;99476.86;107684;1255;62180;-37
2023/04/04 06:38:14;;;;;;;7.50;4.40;;;;;;;3.55;74.44;99470.98;107713;1251;61229;-37
2023/04/04 06:40:44;;;;;;;7.50;4.80;;;;;;;3.58;74.46;99466.41;107680;1251;75054;-37
2023/04/04 06:43:13;;;;;;;7.40;5.40;;;;;;;3.60;74.19;99466.58;107675;1251;68985;-37
2023/04/04 06:45:45;;;;;;;7.80;5.90;;;;;;;3.61;74.17;99469.23;107739;1251;73727;-37
2023/04/04 06:48:15;;;;;;;8.30;5.10;;;;;;;3.61;74.09;99470.67;107787;1251;60413;-37
2023/04/04 06:50:43;;;;;;;7.10;5.70;;;;;;;3.60;74.09;99474.23;107741;1251;60386;-37
2023/04/04 06:53:14;;;;;;;7.80;5.20;;;;;;;3.59;74.17;99465.70;107630;1251;74823;-37
2023/04/04 06:55:44;;;;;;;;;;;;;;;3.61;73.74;99464.56;107762;1251;69106;-37
2023/04/04 06:58:18;;;;;;;6.80;5.10;;;;;;;3.62;73.73;99459.77;107675;1251;73923;-37
2023/04/04 07:00:46;;;;;;;8.60;5.80;;;;;;;3.63;74.02;99466.34;107709;1256;60324;-37
2023/04/04 07:03:16;;;;;;;8.80;5.90;;;;;;;3.68;73.78;99467.02;107676;1251;61195;-37
2023/04/04 07:05:45;;;;;;;6.30;5.10;;;;;;;3.69;73.50;99472.50;107703;1251;75104;-37
2023/04/04 07:08:14;;;;;;;7.90;5.50;;;;;;;3.70;73.53;99473.11;107650;1256;69393;-37
2023/04/04 07:10:43;;;;;;;8.90;5.70;;;;;;;3.73;73.51;99473.78;107634;1251;73606;-37
2023/04/04 07:13:13;;;;;;;9.30;5.40;;;;;;;3.74;73.04;99472.89;107707;1251;61625;-37
2023/04/04 07:15:47;;;;;;;7.80;5.20;;;;;;;3.76;72.67;99479.96;107653;1251;60344;-37
2023/04/04 07:18:16;;;;;;;7.50;5.70;;;;;;;3.75;72.74;99479.74;107605;1251;73659;-37
2023/04/04 07:20:51;;;;;;;7.20;5.40;;;;;;;3.72;72.82;99481.41;107688;1251;69140;-37
2023/04/04 07:23:24;;;;;;;9.90;6.30;;;;;;;3.75;73.34;99483.48;107697;1255;73961;-37
2023/04/04 07:25:54;;;;;;;9.80;6.00;;;;;;;3.81;73.22;99488.26;107669;1251;60460;-37
2023/04/04 07:28:24;;;;;;;7.40;5.30;;;;;;;3.77;73.00;99486.62;107730;1251;61503;-37
2023/04/04 07:30:58;;;;;;;6.20;5.20;;;;;;;3.73;73.04;99490.77;107715;1255;75063;-37
2023/04/04 07:33:28;;;;;;;7.30;5.20;;;;;;;3.80;73.00;99498.18;107685;1251;67353;-37
2023/04/04 07:35:56;;;;;;;7.30;5.30;;;;;;;3.84;72.76;99501.41;107734;1251;73653;-38
2023/04/04 07:38:33;;;;;;;7.70;5.50;;;;;;;3.87;72.94;99508.71;107698;1251;61264;-38
2023/04/04 07:41:02;;;;;;;7.60;5.50;;;;;;;3.91;73.12;99510.80;107679;1255;61515;-38
2023/04/04 07:43:32;;;;;;;8.90;5.40;;;;;;;3.99;73.16;99508.34;107658;1251;75042;-38
2023/04/04 07:46:01;;;;;;;7.80;5.60;;;;;;;4.06;72.75;99507.05;107766;1256;69126;-38
2023/04/04 07:48:30;;;;;;;8.60;5.50;;;;;;;4.07;72.29;99503.42;107756;1256;72902;-38
2023/04/04 07:51:03;;;;;;;7.50;4.90;;;;;;;4.01;72.04;99496.41;107703;1251;62024;-38
2023/04/04 07:53:31;;;;;;;7.00;5.20;;;;;;;4.14;72.35;99502.31;107710;1255;60408;-37
2023/04/04 07:56:05;;;;;;;8.70;5.50;;;;;;;4.20;72.10;99501.80;107628;1253;75094;-37
2023/04/04 07:58:36;;;;;;;7.00;5.00;;;;;;;4.19;71.56;99507.43;107700;1251;68928;-37
2023/04/04 08:01:05;;;;;;;8.60;5.20;;;;;;;4.14;71.70;99507.80;107688;1251;73841;-37
2023/04/04 08:03:35;;;;;;;9.70;5.70;;;;;;;4.13;72.07;99506.00;107690;1251;60284;-37
2023/04/04 08:06:04;;;;;;;7.30;5.10;;;;;;;4.16;72.27;99507.23;107720;1255;61528;-36
2023/04/04 08:08:33;;;;;;;7.40;5.00;;;;;;;4.21;71.91;99506.14;107712;1251;75036;-36
2023/04/04 08:11:02;;;;;;;7.70;5.70;;;;;;;4.28;71.43;99513.83;107688;1251;69023;-36
2023/04/04 08:13:32;;;;;;;;;;;;;;;4.33;71.29;99512.98;107746;1252;73823;-37
2023/04/04 08:16:00;;;;;;;6.30;5.00;;;;;;;4.31;71.35;99512.70;107638;1251;61653;-37
2023/04/04 08:18:30;;;;;;;6.40;4.40;;;;;;;4.36;71.64;99518.63;107705;1252;59567;-37
2023/04/04 08:20:58;;;;;;;8.10;5.20;;;;;;;4.42;70.92;99518.89;107663;1251;74987;-37
2023/04/04 08:23:28;;;;;;;8.30;4.80;;;;;;;4.43;70.67;99521.36;107655;1251;69148;-36
2023/04/04 08:25:58;;;;;;;9.50;5.60;;;;;;;4.46;70.61;99517.69;107663;1251;74607;-37
2023/04/04 08:28:27;;;;;;;7.00;5.20;;;;;;;4.50;70.76;99518.42;107710;1255;61177;-37
2023/04/04 08:30:55;;;;;;;7.80;5.10;;;;;;;4.59;70.61;99515.02;107735;1251;61277;-36
2023/04/04 08:33:28;;;;;;;6.90;5.00;;;;;;;4.65;70.13;99512.11;107701;1251;75038;-37
2023/04/04 08:36:15;;;;;;;7.50;4.60;;;;;;;4.67;70.47;99506.99;107682;1251;69120;-36
2023/04/04 08:38:46;;;;;;;6.90;4.80;;;;;;;4.69;70.02;99508.41;107703;1251;73707;-37
2023/04/04 08:41:15;;;;;;;7.30;5.20;;;;;;;4.66;69.99;99508.29;107717;1251;60718;-37
2023/04/04 08:43:53;;;;;;;8.20;5.40;;;;;;;4.67;70.36;99510.84;107709;1251;61303;-37
2023/04/04 08:46:23;;;;;;;6.80;5.00;;;;;;;4.71;70.36;99515.34;107632;1251;75036;-37
2023/04/04 08:48:52;;;;;;;7.30;4.60;;;;;;;4.72;70.01;99518.59;107676;1251;68858;-37
2023/04/04 08:51:21;;;;;;;6.10;4.60;;;;;;;4.72;70.02;99519.65;107626;1257;73888;-37
2023/04/04 08:53:53;;;;;;;5.80;4.30;;;;;;;4.82;70.17;99523.00;107654;1251;60424;-37
2023/04/04 08:56:22;;;;;;;6.40;4.30;;;;;;;4.94;70.08;99521.70;107725;1251;61527;-37
2023/04/04 08:58:51;;;;;;;6.90;4.30;;;;;;;5.04;70.10;99522.41;107770;1251;73594;-37
2023/04/04 09:01:19;;;;;;;6.60;4.60;;;;;;;5.16;70.10;99525.40;107713;1255;69117;-37
2023/04/04 09:03:57;;;;;;;5.50;4.20;;;;;;;5.29;69.86;99525.05;106804;1252;1003346;-37
2023/04/04 09:06:26;;;;;;;5.70;4.20;;;;;;;5.39;69.49;99523.70;107670;1257;60765;-37
2023/04/04 09:08:56;;;;;;;6.10;4.30;;;;;;;5.49;68.92;99526.67;107743;1256;60431;-37
2023/04/04 09:11:25;;;;;;;5.90;4.20;;;;;;;5.56;68.44;99526.98;107683;1251;75129;-37
2023/04/04 09:13:53;;;;;;;6.40;4.60;;;;;;;5.61;68.18;99534.05;107732;1251;68822;-37
2023/04/04 09:16:22;;;;;;;7.30;4.00;;;;;;;5.64;68.00;99534.74;103102;1257;1005662;-37
2023/04/04 09:18:51;;;;;;;4.70;4.00;;;;;;;5.71;67.78;99529.16;107717;1251;61036;-37
2023/04/04 09:21:22;;;;;;;5.50;3.60;;;;;;;5.74;67.12;99531.36;107673;1251;61926;-37
2023/04/04 09:23:59;;;;;;;4.90;3.70;;;;;;;5.68;66.74;99524.20;106938;1256;1002817;-37
2023/04/04 09:26:27;;;;;;;7.10;3.80;;;;;;;5.67;66.91;99517.94;107698;1255;68318;-37
2023/04/04 09:28:56;;;;;;;5.70;4.20;;;;;;;5.72;67.20;99512.92;107692;1251;73859;-37
2023/04/04 09:31:26;;;;;;;5.50;4.40;;;;;;;5.78;67.50;99514.16;107635;1251;60789;-37
2023/04/04 09:33:54;;;;;;;5.70;4.00;;;;;;;5.80;67.06;99516.83;107708;1251;61189;-37
2023/04/04 09:36:23;;;;;;;7.80;4.60;;;;;;;5.80;66.96;99520.14;107549;1251;75012;-37
2023/04/04 09:38:51;;;;;;;6.10;4.10;;;;;;;5.80;66.95;99516.05;107542;1251;68945;-37
2023/04/04 09:41:20;;;;;;;5.90;4.40;;;;;;;5.77;66.66;99517.16;107564;1259;73827;-37
2023/04/04 09:43:48;;;;;;;5.10;3.60;;;;;;;5.73;66.57;99516.67;107674;1251;62422;-37
2023/04/04 09:46:20;;;;;;;3.70;3.30;;;;;;;5.75;66.49;99515.94;107448;1257;178295;-38
2023/04/04 09:51:17;;;;;;;5.60;3.70;;;;;;;5.74;66.81;99508.22;104358;1290;601406;-37
2023/04/04 09:53:49;;;;;;;6.40;4.30;;;;;;;5.71;66.71;99504.35;106742;1265;60545;-37
2023/04/04 09:56:18;;;;;;;6.80;4.30;;;;;;;5.72;66.91;99499.91;106716;1267;61572;-37
2023/04/04 09:58:47;;;;;;;5.70;4.60;;;;;;;5.72;67.11;99495.13;107383;1254;73457;-37
2023/04/04 10:01:32;;;;;;;5.00;4.20;;;;;;;5.75;67.69;99491.70;107306;1254;67464;-37
2023/04/04 10:04:03;;;;;;;5.30;3.80;;;;;;;5.73;67.62;99492.02;107464;1253;216979;-37
2023/04/04 10:06:32;;;;;;;6.00;4.00;;;;;;;5.79;67.47;99489.18;107687;1251;62138;-37
2023/04/04 10:09:06;;;;;;;5.20;3.50;;;;;;;5.88;67.93;99488.95;107708;1251;61548;-37
2023/04/04 10:11:35;;;;;;;4.30;3.50;;;;;;;5.95;67.84;99491.19;107683;1251;72439;-37
2023/04/04 10:14:04;;;;;;;4.90;3.60;;;;;;;5.99;67.38;99491.71;107729;1251;69130;-37
2023/04/04 10:16:33;;;;;;;5.40;3.30;;;;;;;5.98;66.93;99495.67;107669;1255;73866;-37
2023/04/04 10:19:03;;;;;;;3.80;3.40;;;;;;;5.96;66.88;99499.00;107750;1251;59788;-37
2023/04/04 10:21:32;;;;;;;4.50;3.50;;;;;;;5.97;67.06;99506.48;107802;1251;59509;-37
2023/04/04 10:24:03;;;;;;;3.60;3.00;;;;;;;5.96;66.45;99508.64;107736;1251;73486;-37
2023/04/04 10:26:32;;;;;;;4.70;3.80;;;;;;;5.91;66.59;99504.06;107702;1256;68902;-38
2023/04/04 10:29:00;;;;;;;5.00;3.70;;;;;;;5.87;66.39;99510.74;107719;1251;73827;-37
2023/04/04 10:31:29;;;;;;;5.10;3.80;;;;;;;5.92;66.65;99515.66;107641;1251;62370;-38
2023/04/04 10:34:21;;;;;;;3.40;3.00;;;;;;;5.99;66.45;99515.95;107717;1251;60561;-37
2023/04/04 10:36:53;;;;;;;4.20;3.30;;;;;;;6.00;66.30;99511.66;107701;1251;73925;-38
2023/04/04 10:39:26;;;;;;;4.30;3.60;;;;;;;5.97;66.29;99511.55;107711;1251;68937;-37
2023/04/04 10:41:55;;;;;;;5.50;3.90;;;;;;;5.98;65.99;99510.52;107735;1251;72638;-37
2023/04/04 10:44:32;;;;;;;4.90;3.50;;;;;;;5.98;65.88;99509.88;106183;1251;1003565;-37
2023/04/04 10:47:16;;;;;;;5.60;3.50;;;;;;;5.94;65.53;99513.90;107747;1251;61200;-36
2023/04/04 10:49:46;;;;;;;5.00;3.50;;;;;;;5.90;65.85;99517.18;107785;1251;74230;-37
2023/04/04 10:52:15;;;;;;;4.40;3.30;;;;;;;5.87;65.92;99514.40;107619;1251;69002;-37
2023/04/04 10:54:44;;;;;;;4.10;3.20;;;;;;;5.81;65.95;99518.20;107628;1254;72349;-37
2023/04/04 10:57:13;;;;;;;4.50;3.20;;;;;;;5.80;66.04;99525.51;107588;1254;62376;-37
2023/04/04 11:00:09;;;;;;;5.80;3.90;;;;;;;5.84;66.30;99528.06;107414;1252;60226;-37
2023/04/04 11:02:43;;;;;;;5.30;3.60;;;;;;;5.85;66.16;99523.79;107671;1254;74295;-37
2023/04/04 11:05:17;;;;;;;5.80;4.10;;;;;;;5.80;66.11;99523.74;107658;1256;67630;-37
2023/04/04 11:07:46;;;;;;;4.40;3.60;;;;;;;5.79;66.39;99523.27;107744;1254;73372;-37
2023/04/04 11:10:40;;;;;;;5.10;3.90;;;;;;;5.83;66.50;99522.56;107727;1254;60509;-37
2023/04/04 11:13:34;;;;;;;5.80;4.10;;;;;;;5.83;66.13;99513.56;107722;1254;60352;-37
2023/04/04 11:16:06;;;;;;;4.40;3.90;;;;;;;5.78;66.15;99511.59;107686;1256;72855;-38
2023/04/04 11:18:44;;;;;;;4.90;4.20;;;;;;;5.73;66.20;99515.16;107649;1254;69394;-37
2023/04/04 11:21:15;;;;;;;4.90;3.80;;;;;;;5.72;66.46;99520.41;107675;1252;73974;-37
2023/04/04 11:23:47;;;;;;;5.80;4.20;;;;;;;5.76;66.37;99516.13;107715;1253;62375;-37
2023/04/04 11:26:25;;;;;;;5.00;3.90;;;;;;;5.80;66.19;99516.59;107775;1254;59746;-37
2023/04/04 11:28:57;;;;;;;8.10;5.10;;;;;;;5.79;66.12;99516.63;107724;1253;74460;-37
2023/04/04 11:31:32;;;;;;;7.50;5.00;;;;;;;5.78;66.39;99519.83;107742;1254;69599;-37
2023/04/04 11:34:05;;;;;;;21.70;12.40;;;;;;;5.84;66.71;99517.46;107728;1256;71784;-37
2023/04/04 11:36:36;;;;;;;6.40;5.20;;;;;;;5.88;67.04;99518.34;107674;1254;60432;-37
2023/04/04 11:39:09;;;;;;;7.20;4.60;;;;;;;5.87;67.10;99517.27;107689;1257;61535;-37
2023/04/04 11:41:56;;;;;;;13.90;10.00;;;;;;;5.80;67.58;99510.30;107729;1253;74167;-37
2023/04/04 11:44:29;;;;;;;9.20;7.50;;;;;;;5.78;68.27;99507.60;107733;1253;69106;-37
2023/04/04 11:47:10;;;;;;;10.40;8.20;;;;;;;5.82;68.41;99505.56;107689;1254;74050;-37
2023/04/04 11:49:41;;;;;;;6.50;4.60;;;;;;;5.91;68.76;99503.30;107722;1254;61569;-37
2023/04/04 11:52:14;;;;;;;;;;;;;;;5.90;68.61;99504.27;107753;1254;62100;-37
2023/04/04 11:54:43;;;;;;;11.70;7.20;;;;;;;5.81;68.90;99495.81;107709;1254;73875;-37